createdAt,value
2018-06-05T04:59:13.761Z,33.75
2018-06-05T05:00:13.108Z,39.38
2018-06-05T05:02:06.510Z,33.75
2018-06-05T05:03:06.434Z,33.75
2018-06-05T05:05:00.900Z,33.75
2018-06-05T05:06:01.061Z,39.38
2018-06-05T05:07:54.480Z,45.00
2018-06-05T05:08:54.309Z,45.00
2018-06-05T05:10:47.800Z,45.00
2018-06-05T05:11:48.300Z,39.38
2018-06-05T05:13:42.261Z,45.00
2018-06-05T05:14:42.149Z,45.00
2018-06-05T05:16:34.566Z,45.00
2018-06-05T05:17:35.520Z,45.00
2018-06-05T05:19:27.908Z,45.00
2018-06-05T05:20:27.489Z,50.63
2018-06-05T05:22:21.740Z,45.00
2018-06-05T05:23:22.340Z,45.00
2018-06-05T05:25:15.222Z,45.00
2018-06-05T05:26:15.239Z,45.00
2018-06-05T05:28:08.641Z,45.00
2018-06-05T05:29:08.089Z,45.00
2018-06-05T05:31:01.444Z,50.63
2018-06-05T05:32:01.411Z,50.63
2018-06-05T05:34:46.981Z,50.63
2018-06-05T05:35:46.512Z,50.63
2018-06-05T05:37:39.784Z,50.63
2018-06-05T05:39:53.168Z,50.63
2018-06-05T05:40:53.168Z,50.63
2018-06-05T05:42:46.607Z,50.63
2018-06-05T05:43:46.981Z,56.25
2018-06-05T05:45:40.019Z,56.25
2018-06-05T05:46:39.907Z,56.25
2018-06-05T05:48:33.902Z,56.25
2018-06-05T05:49:32.825Z,56.25
2018-06-05T05:51:26.302Z,56.25
2018-06-05T05:52:26.650Z,56.25
2018-06-05T05:54:21.537Z,56.25
2018-06-05T05:55:20.688Z,56.25
2018-06-05T05:57:14.457Z,56.25
2018-06-05T05:58:14.408Z,56.25
2018-06-05T06:00:07.813Z,56.25
2018-06-05T06:01:07.988Z,56.25
2018-06-05T06:03:02.274Z,56.25
2018-06-05T06:04:01.757Z,61.88
2018-06-05T06:05:54.569Z,61.88
2018-06-05T06:06:54.509Z,61.88
2018-06-05T06:08:48.943Z,61.88
2018-06-05T06:09:47.945Z,61.88
2018-06-05T06:11:41.903Z,61.88
2018-06-05T06:12:41.347Z,67.50
2018-06-05T06:14:55.780Z,73.13
2018-06-05T06:15:54.730Z,73.13
2018-06-05T06:17:47.300Z,78.75
2018-06-05T06:18:47.237Z,73.13
2018-06-05T06:20:41.203Z,73.13
2018-06-05T06:21:40.834Z,73.13
2018-06-05T06:23:34.085Z,78.75
2018-06-05T06:24:33.642Z,78.75
2018-06-05T06:26:40.478Z,84.38
2018-06-05T06:27:38.508Z,84.38
2018-06-05T06:29:36.711Z,84.38
2018-06-05T06:30:32.625Z,84.38
2018-06-05T06:32:26.360Z,84.38
2018-06-05T06:33:26.305Z,84.38
2018-06-05T06:35:19.723Z,84.38
2018-06-05T06:36:19.655Z,84.38
2018-06-05T06:38:14.532Z,90.00
2018-06-05T06:39:12.755Z,90.00
2018-06-05T06:41:07.045Z,95.63
2018-06-05T06:42:06.695Z,95.63
2018-06-05T06:44:00.364Z,101.25
2018-06-05T06:45:00.559Z,95.63
2018-06-05T06:46:54.392Z,95.63
2018-06-05T06:47:55.279Z,95.63
2018-06-05T06:49:48.284Z,95.63
2018-06-05T06:50:48.711Z,90.00
2018-06-05T06:52:41.587Z,84.38
2018-06-05T06:53:41.235Z,84.38
2018-06-05T06:55:34.897Z,90.00
2018-06-05T06:56:34.890Z,90.00
2018-06-05T06:58:28.334Z,90.00
2018-06-05T06:59:28.019Z,90.00
2018-06-05T07:01:21.668Z,90.00
2018-06-05T07:02:21.669Z,95.63
2018-06-05T07:04:14.610Z,90.00
2018-06-05T07:05:14.572Z,90.00
2018-06-05T07:07:10.732Z,95.63
2018-06-05T07:08:08.173Z,95.63
2018-06-05T07:10:01.581Z,95.63
2018-06-05T07:11:01.377Z,95.63
2018-06-05T07:13:07.293Z,106.88
2018-06-05T07:14:06.279Z,112.50
2018-06-05T07:15:59.827Z,118.13
2018-06-05T07:17:00.288Z,123.75
2018-06-05T07:18:53.108Z,129.38
2018-06-05T07:19:53.273Z,129.38
2018-06-05T07:21:46.491Z,146.25
2018-06-05T07:22:46.468Z,151.88
2018-06-05T07:24:39.874Z,163.13
2018-06-05T07:25:39.863Z,163.13
2018-06-05T07:27:33.258Z,168.75
2018-06-05T07:28:32.900Z,174.38
2018-06-05T07:30:26.892Z,202.50
2018-06-05T07:31:26.297Z,213.75
2018-06-05T07:33:20.568Z,225.00
2018-06-05T07:34:19.935Z,230.63
2018-06-05T07:36:14.019Z,241.88
2018-06-05T07:37:12.921Z,247.50
2018-06-05T07:39:06.541Z,258.75
2018-06-05T07:40:06.260Z,241.88
2018-06-05T07:42:00.741Z,225.00
2018-06-05T07:42:59.634Z,230.63
2018-06-05T07:44:53.060Z,208.13
2018-06-05T07:45:53.019Z,202.50
2018-06-05T07:47:46.492Z,208.13
2018-06-05T07:48:46.386Z,213.75
2018-06-05T07:50:58.321Z,241.88
2018-06-05T07:51:56.072Z,253.13
2018-06-05T07:53:51.085Z,275.63
2018-06-05T07:54:50.434Z,275.63
2018-06-05T07:56:47.839Z,241.88
2018-06-05T07:57:46.363Z,236.25
2018-06-05T07:59:39.783Z,236.25
2018-06-05T08:00:39.788Z,247.50
2018-06-05T08:02:33.102Z,286.88
2018-06-05T08:03:33.093Z,292.50
2018-06-05T08:05:31.574Z,281.25
2018-06-05T08:06:31.042Z,292.50
2018-06-05T08:08:31.519Z,298.13
2018-06-05T08:09:31.385Z,292.50
2018-06-05T08:11:24.827Z,275.63
2018-06-05T08:12:24.801Z,298.13
2018-06-05T08:14:18.237Z,326.25
2018-06-05T08:15:18.171Z,326.25
2018-06-05T08:17:11.635Z,281.25
2018-06-05T08:18:13.089Z,275.63
2018-06-05T08:20:04.960Z,281.25
2018-06-05T08:21:04.642Z,286.88
2018-06-05T08:22:59.046Z,281.25
2018-06-05T08:23:59.011Z,258.75
2018-06-05T08:25:53.301Z,241.88
2018-06-05T08:26:52.725Z,241.88
2018-06-05T08:28:46.142Z,241.88
2018-06-05T08:29:46.099Z,241.88
2018-06-05T08:31:42.543Z,230.63
2018-06-05T08:32:40.522Z,236.25
2018-06-05T08:34:33.891Z,241.88
2018-06-05T08:35:33.584Z,247.50
2018-06-05T08:37:27.261Z,275.63
2018-06-05T08:38:27.296Z,298.13
2018-06-05T08:40:21.057Z,337.50
2018-06-05T08:41:20.687Z,365.63
2018-06-05T08:43:14.100Z,416.25
2018-06-05T08:44:14.078Z,427.50
2018-06-05T08:46:07.477Z,410.63
2018-06-05T08:47:07.440Z,416.25
2018-06-05T08:49:00.827Z,376.88
2018-06-05T08:50:00.515Z,405.00
2018-06-05T08:51:54.785Z,433.13
2018-06-05T08:52:54.187Z,444.38
2018-06-05T08:54:48.141Z,483.75
2018-06-05T08:55:48.138Z,495.00
2018-06-05T08:57:41.827Z,540.00
2018-06-05T08:58:41.523Z,534.38
2018-06-05T09:00:34.961Z,517.50
2018-06-05T09:01:34.901Z,455.63
2018-06-05T09:03:32.420Z,393.75
2018-06-05T09:04:28.995Z,382.50
2018-06-05T09:06:22.695Z,348.75
2018-06-05T09:07:22.738Z,343.13
2018-06-05T09:09:16.102Z,326.25
2018-06-05T09:10:15.813Z,326.25
2018-06-05T09:12:09.457Z,354.38
2018-06-05T09:13:09.444Z,376.88
2018-06-05T09:15:02.868Z,455.63
2018-06-05T09:16:02.870Z,489.38
2018-06-05T09:17:56.860Z,489.38
2018-06-05T09:18:56.864Z,483.75
2018-06-05T09:20:50.606Z,438.75
2018-06-05T09:21:49.916Z,450.00
2018-06-05T09:23:43.636Z,461.25
2018-06-05T09:24:43.615Z,433.13
2018-06-05T09:26:37.003Z,495.00
2018-06-05T09:27:36.683Z,528.75
2018-06-05T09:29:32.916Z,511.88
2018-06-05T09:30:32.985Z,466.88
2018-06-05T09:32:26.331Z,489.38
2018-06-05T09:33:26.278Z,506.25
2018-06-05T09:35:19.753Z,461.25
2018-06-05T09:36:19.734Z,421.88
2018-06-05T09:38:13.210Z,337.50
2018-06-05T09:39:12.745Z,382.50
2018-06-05T09:41:06.115Z,354.38
2018-06-05T09:42:07.635Z,343.13
2018-06-05T09:43:59.528Z,326.25
2018-06-05T09:44:59.790Z,331.88
2018-06-05T09:46:53.671Z,292.50
2018-06-05T09:47:53.445Z,298.13
2018-06-05T09:49:51.532Z,303.75
2018-06-05T09:50:46.858Z,326.25
2018-06-05T09:52:39.760Z,337.50
2018-06-05T09:53:39.435Z,315.00
2018-06-05T09:55:33.093Z,286.88
2018-06-05T09:56:32.763Z,270.00
2018-06-05T09:58:26.623Z,275.63
2018-06-05T09:59:26.807Z,281.25
2018-06-05T10:01:20.944Z,247.50
2018-06-05T10:02:20.541Z,247.50
2018-06-05T10:04:14.231Z,241.88
2018-06-05T10:05:13.946Z,236.25
2018-06-05T10:07:07.214Z,236.25
2018-06-05T10:08:07.683Z,236.25
2018-06-05T10:10:01.616Z,236.25
2018-06-05T10:11:01.510Z,236.25
2018-06-05T10:12:54.936Z,236.25
2018-06-05T10:13:54.573Z,236.25
2018-06-05T10:15:48.365Z,241.88
2018-06-05T10:16:48.315Z,213.75
2018-06-05T10:18:41.942Z,225.00
2018-06-05T10:19:43.422Z,225.00
2018-06-05T10:21:36.108Z,219.38
2018-06-05T10:22:35.555Z,219.38
2018-06-05T10:24:29.041Z,213.75
2018-06-05T10:25:29.490Z,213.75
2018-06-05T10:27:23.422Z,208.13
2018-06-05T10:28:23.315Z,208.13
2018-06-05T10:30:16.773Z,202.50
2018-06-05T10:31:16.684Z,202.50
2018-06-05T10:33:10.151Z,196.88
2018-06-05T10:34:10.112Z,202.50
2018-06-05T10:36:03.219Z,191.25
2018-06-05T10:37:03.511Z,191.25
2018-06-05T10:38:56.951Z,196.88
2018-06-05T10:39:56.706Z,213.75
2018-06-05T10:41:57.328Z,185.63
2018-06-05T10:42:50.356Z,191.25
2018-06-05T10:44:43.740Z,185.63
2018-06-05T10:45:44.203Z,191.25
2018-06-05T10:47:37.082Z,202.50
2018-06-05T10:48:36.787Z,196.88
2018-06-05T10:50:30.767Z,213.75
2018-06-05T10:51:30.473Z,213.75
2018-06-05T10:53:23.870Z,219.38
2018-06-05T10:54:23.519Z,241.88
2018-06-05T10:56:17.288Z,219.38
2018-06-05T10:57:17.288Z,208.13
2018-06-05T10:59:10.693Z,191.25
2018-06-05T11:00:10.613Z,185.63
2018-06-05T11:02:05.579Z,191.25
2018-06-05T11:03:05.577Z,196.88
2018-06-05T11:04:57.451Z,208.13
2018-06-05T11:05:57.382Z,191.25
2018-06-05T11:07:50.861Z,191.25
2018-06-05T11:08:50.812Z,196.88
2018-06-05T11:10:44.184Z,196.88
2018-06-05T11:11:44.190Z,185.63
2018-06-05T11:13:41.628Z,196.88
2018-06-05T11:14:40.153Z,185.63
2018-06-05T11:16:33.560Z,185.63
2018-06-05T11:17:33.528Z,180.00
2018-06-05T11:19:27.509Z,180.00
2018-06-05T11:20:26.875Z,168.75
2018-06-05T11:22:20.287Z,168.75
2018-06-05T11:23:20.281Z,168.75
2018-06-05T11:25:14.226Z,168.75
2018-06-05T11:26:13.713Z,168.75
2018-06-05T11:28:07.107Z,180.00
2018-06-05T11:29:07.082Z,191.25
2018-06-05T11:31:01.076Z,196.88
2018-06-05T11:32:01.103Z,202.50
2018-06-05T11:33:58.058Z,191.25
2018-06-05T11:34:56.942Z,191.25
2018-06-05T11:36:49.921Z,202.50
2018-06-05T11:37:50.222Z,196.88
2018-06-05T11:39:48.287Z,180.00
2018-06-05T11:40:43.211Z,185.63
2018-06-05T11:42:36.616Z,180.00
2018-06-05T11:43:36.289Z,180.00
2018-06-05T11:45:30.029Z,191.25
2018-06-05T11:46:29.985Z,191.25
2018-06-05T11:48:23.491Z,174.38
2018-06-05T11:49:23.401Z,168.75
2018-06-05T11:51:16.841Z,174.38
2018-06-05T11:52:16.507Z,174.38
2018-06-05T11:54:10.316Z,168.75
2018-06-05T11:55:09.849Z,168.75
2018-06-05T11:57:07.642Z,163.13
2018-06-05T11:58:04.171Z,151.88
2018-06-05T11:59:56.959Z,163.13
2018-06-05T12:00:57.268Z,163.13
2018-06-05T12:02:50.400Z,157.50
2018-06-05T12:03:50.331Z,151.88
2018-06-05T12:05:43.681Z,146.25
2018-06-05T12:06:43.403Z,146.25
2018-06-05T12:08:37.234Z,146.25
2018-06-05T12:09:36.777Z,146.25
2018-06-05T12:11:30.471Z,140.63
2018-06-05T12:12:30.177Z,140.63
2018-06-05T12:14:23.539Z,135.00
2018-06-05T12:15:23.459Z,135.00
2018-06-05T12:17:17.003Z,135.00
2018-06-05T12:18:16.845Z,135.00
2018-06-05T12:20:10.872Z,140.63
2018-06-05T12:21:10.261Z,146.25
2018-06-05T12:23:06.906Z,146.25
2018-06-05T12:24:04.694Z,140.63
2018-06-05T12:25:58.077Z,140.63
2018-06-05T12:26:58.080Z,140.63
2018-06-05T12:28:52.604Z,140.63
2018-06-05T12:29:51.416Z,146.25
2018-06-05T12:31:45.057Z,140.63
2018-06-05T12:32:44.845Z,140.63
2018-06-05T12:34:38.283Z,135.00
2018-06-05T12:35:38.269Z,129.38
2018-06-05T12:37:31.660Z,129.38
2018-06-05T12:38:31.633Z,123.75
2018-06-05T12:40:27.525Z,123.75
2018-06-05T12:41:25.017Z,129.38
2018-06-05T12:43:20.633Z,129.38
2018-06-05T12:44:19.080Z,129.38
2018-06-05T12:46:12.815Z,123.75
2018-06-05T12:47:12.798Z,129.38
2018-06-05T12:49:06.243Z,135.00
2018-06-05T12:50:05.843Z,135.00
2018-06-05T12:52:00.172Z,140.63
2018-06-05T12:52:59.669Z,135.00
2018-06-05T12:54:53.038Z,140.63
2018-06-05T12:55:52.979Z,151.88
2018-06-05T12:57:48.001Z,174.38
2018-06-05T12:58:46.348Z,168.75
2018-06-05T13:00:39.773Z,146.25
2018-06-05T13:01:39.447Z,151.88
2018-06-05T13:03:34.782Z,140.63
2018-06-05T13:04:33.098Z,140.63
2018-06-05T13:06:26.587Z,146.25
2018-06-05T13:07:26.221Z,140.63
2018-06-05T13:09:20.047Z,129.38
2018-06-05T13:10:19.620Z,129.38
2018-06-05T13:12:13.349Z,129.38
2018-06-05T13:13:12.995Z,123.75
2018-06-05T13:15:06.297Z,129.38
2018-06-05T13:16:06.183Z,129.38
2018-06-05T13:17:59.647Z,123.75
2018-06-05T13:18:59.622Z,118.13
2018-06-05T13:20:58.627Z,112.50
2018-06-05T13:21:54.576Z,112.50
2018-06-05T13:23:47.785Z,112.50
2018-06-05T13:24:46.842Z,112.50
2018-06-05T13:26:40.636Z,112.50
2018-06-05T13:27:40.582Z,106.88
2018-06-05T13:29:33.933Z,112.50
2018-06-05T13:30:33.944Z,112.50
2018-06-05T13:32:27.402Z,106.88
2018-06-05T13:33:27.546Z,106.88
2018-06-05T13:35:20.755Z,106.88
2018-06-05T13:36:20.644Z,106.88
2018-06-05T13:38:16.744Z,106.88
2018-06-05T13:39:16.644Z,106.88
2018-06-05T13:41:10.074Z,106.88
2018-06-05T13:42:10.031Z,106.88
2018-06-05T13:44:27.529Z,106.88
2018-06-05T13:45:27.474Z,106.88
2018-06-05T19:59:08.044Z,0.00
2018-06-05T20:00:07.904Z,0.00
2018-06-05T20:02:00.777Z,0.00
2018-06-05T20:03:00.298Z,0.00
2018-06-05T20:04:54.485Z,0.00
2018-06-05T20:05:55.632Z,0.00
2018-06-05T20:07:47.559Z,0.00
2018-06-05T20:08:47.501Z,0.00
2018-06-05T20:10:41.445Z,0.00
2018-06-05T20:11:40.920Z,0.00
2018-06-05T20:13:34.307Z,0.00
2018-06-05T20:14:33.814Z,0.00
2018-06-05T20:16:27.814Z,0.00
2018-06-05T20:17:27.206Z,0.00
2018-06-05T20:19:21.092Z,0.00
2018-06-05T20:20:20.991Z,0.00
2018-06-05T20:22:16.515Z,0.00
2018-06-05T20:24:44.912Z,0.00
2018-06-05T20:25:46.316Z,0.00
2018-06-05T20:27:39.961Z,0.00
2018-06-05T20:28:41.023Z,0.00
2018-06-05T20:30:43.043Z,0.00
2018-06-05T20:33:31.426Z,0.00
2018-06-05T20:34:29.432Z,0.00
2018-06-05T20:36:24.401Z,0.00
2018-06-05T20:37:22.503Z,0.00
2018-06-05T20:39:16.001Z,0.00
2018-06-05T20:40:15.910Z,0.00
2018-06-05T20:42:12.017Z,0.00
2018-06-05T20:43:11.816Z,0.00
2018-06-05T20:45:04.439Z,0.00
2018-06-05T20:46:01.911Z,0.00
2018-06-05T20:47:55.215Z,0.00
2018-06-05T20:48:55.292Z,0.00
2018-06-05T20:51:07.354Z,0.00
2018-06-05T20:53:21.694Z,0.00
2018-06-05T20:54:21.067Z,0.00
2018-06-05T20:56:14.775Z,0.00
2018-06-05T20:57:15.046Z,0.00
2018-06-05T20:59:07.947Z,0.00
2018-06-05T21:00:10.168Z,0.00
2018-06-05T21:02:01.238Z,0.00
2018-06-05T21:03:01.750Z,0.00
2018-06-05T21:04:55.170Z,0.00
2018-06-05T21:05:54.380Z,0.00
2018-06-05T21:07:48.092Z,0.00
2018-06-05T21:08:48.013Z,0.00
2018-06-05T21:10:42.523Z,0.00
2018-06-05T21:11:41.761Z,0.00
2018-06-05T21:13:35.967Z,0.00
2018-06-05T21:14:35.532Z,0.00
2018-06-05T21:16:29.887Z,0.00
2018-06-05T21:17:28.959Z,0.00
2018-06-05T21:19:23.690Z,0.00
2018-06-05T21:20:24.537Z,0.00
2018-06-05T21:23:10.607Z,0.00
2018-06-05T21:24:06.848Z,0.00
2018-06-05T21:26:00.542Z,0.00
2018-06-05T21:27:00.442Z,0.00
2018-06-05T21:28:54.000Z,0.00
2018-06-05T21:29:53.951Z,0.00
2018-06-05T21:31:48.446Z,0.00
2018-06-05T21:32:48.770Z,0.00
2018-06-05T21:34:41.764Z,0.00
2018-06-05T21:35:41.121Z,0.00
2018-06-05T21:37:34.978Z,0.00
2018-06-05T21:38:34.892Z,0.00
2018-06-05T21:40:28.169Z,0.00
2018-06-05T21:41:28.100Z,0.00
2018-06-05T21:43:21.542Z,0.00
2018-06-05T21:44:21.523Z,0.00
2018-06-05T21:46:16.748Z,0.00
2018-06-05T21:47:15.639Z,0.00
2018-06-05T21:49:09.138Z,0.00
2018-06-05T21:50:08.690Z,0.00
2018-06-05T21:52:02.435Z,0.00
2018-06-05T21:53:02.451Z,0.00
2018-06-05T21:54:57.891Z,0.00
2018-06-05T21:55:55.941Z,0.00
2018-06-05T21:57:49.231Z,0.00
2018-06-05T21:58:49.456Z,0.00
2018-06-05T22:00:42.765Z,0.00
2018-06-05T22:01:42.450Z,0.00
2018-06-05T22:03:36.446Z,0.00
2018-06-05T22:05:49.402Z,0.00
2018-06-05T22:06:49.289Z,0.00
2018-06-05T22:08:42.877Z,0.00
2018-06-05T22:09:42.342Z,0.00
2018-06-05T22:11:36.178Z,0.00
2018-06-05T22:12:37.330Z,0.00
2018-06-05T22:14:29.684Z,0.00
2018-06-05T22:15:29.571Z,0.00
2018-06-05T22:17:23.088Z,0.00
2018-06-05T22:18:22.710Z,0.00
2018-06-05T22:20:16.463Z,0.00
2018-06-05T22:21:16.274Z,0.00
2018-06-05T22:23:10.511Z,0.00
2018-06-05T22:24:09.106Z,0.00
2018-06-05T22:26:03.918Z,0.00
2018-06-05T22:27:04.378Z,0.00
2018-06-05T22:28:57.417Z,0.00
2018-06-05T22:29:57.817Z,0.00
2018-06-05T22:31:51.255Z,0.00
2018-06-05T22:32:51.201Z,0.00
2018-06-05T22:34:43.693Z,0.00
2018-06-05T22:35:42.992Z,0.00
2018-06-05T22:37:38.044Z,0.00
2018-06-05T22:38:37.954Z,0.00
2018-06-05T22:40:30.707Z,0.00
2018-06-05T22:41:31.226Z,0.00
2018-06-05T22:43:23.162Z,0.00
2018-06-05T22:44:22.728Z,0.00
2018-06-05T22:46:16.878Z,0.00
2018-06-05T22:47:16.441Z,0.00
2018-06-05T22:49:11.727Z,0.00
2018-06-05T22:50:09.935Z,0.00
2018-06-05T22:52:04.183Z,0.00
2018-06-05T22:53:03.219Z,0.00
2018-06-05T22:54:58.127Z,0.00
2018-06-05T22:55:58.466Z,0.00
2018-06-05T22:57:50.498Z,0.00
2018-06-05T22:58:50.872Z,0.00
2018-06-05T23:00:44.147Z,0.00
2018-06-05T23:01:43.609Z,0.00
2018-06-05T23:03:37.554Z,0.00
2018-06-05T23:04:38.004Z,0.00
2018-06-05T23:06:31.375Z,0.00
2018-06-05T23:07:30.080Z,0.00
2018-06-05T23:09:24.621Z,0.00
2018-06-05T23:10:24.277Z,0.00
2018-06-05T23:12:18.496Z,0.00
2018-06-05T23:13:17.535Z,0.00
2018-06-05T23:15:10.982Z,0.00
2018-06-05T23:16:10.900Z,0.00
2018-06-05T23:18:03.764Z,0.00
2018-06-05T23:19:04.237Z,0.00
2018-06-05T23:20:57.231Z,0.00
2018-06-05T23:21:57.095Z,0.00
2018-06-05T23:23:51.102Z,0.00
2018-06-05T23:24:51.099Z,0.00
2018-06-05T23:26:44.005Z,0.00
2018-06-05T23:27:44.949Z,0.00
2018-06-05T23:29:38.837Z,0.00
2018-06-05T23:30:37.036Z,0.00
2018-06-05T23:32:31.893Z,0.00
2018-06-05T23:33:30.527Z,0.00
2018-06-05T23:35:25.227Z,0.00
2018-06-05T23:36:24.553Z,0.00
2018-06-05T23:38:17.909Z,0.00
2018-06-05T23:39:17.140Z,0.00
2018-06-05T23:41:12.231Z,0.00
2018-06-05T23:42:11.264Z,0.00
2018-06-05T23:44:05.738Z,0.00
2018-06-05T23:45:04.954Z,0.00
2018-06-05T23:46:58.727Z,0.00
2018-06-05T23:47:58.934Z,0.00
2018-06-05T23:49:51.800Z,0.00
2018-06-05T23:50:51.798Z,0.00
2018-06-05T23:52:47.021Z,0.00
2018-06-05T23:53:47.133Z,0.00
2018-06-05T23:55:39.727Z,0.00
2018-06-05T23:56:39.581Z,0.00
2018-06-05T23:58:33.659Z,0.00
2018-06-05T23:59:33.153Z,0.00
